Airfield :
LOGIN :

Register | Disclaimer

   EN    FR    IT 

 










Legend :    VFR   Marginal VFR   IFR   Intensive IFR   Very Intensive IFR
Visi :
Ceiling :
>= 8 km
>= 3000ft
5 to 8 km
1000 to 3000 ft
1500m to 5 km
500 to 1000 ft
800 to 1500m
200 to 500 ft
< 800m
< 200 ft
Symbols :   Thunderstorms  Fog  Heavy snow  Heavy precipitations  Wind > 20 kt
SIGMETs :     Misc.  Thunderstorms  Icing  Turbulence  Mountain Waves  Volcanic Ashes







- Airport Elevation : 1058 ft
- IATA code : SCN


EDDR - Saarbrücken

CURRENT METAR :
  • 251950Z 25008KT 9999 FEW013 BKN045 10/09 Q1015 NOSIG

EXPIRED METARs :
  • 251920Z 26007KT 9999 FEW008 SCT025 BKN050 11/10 Q1015 NOSIG
  • 251850Z 28009KT 240V300 9999 -SHRA FEW007 SCT025TCU BKN030 11/10 Q1015 NOSIG
  • 251820Z 26008KT 9999 -SHRA FEW007 SCT025TCU BKN060 11/10 Q1014 NOSIG
  • 251750Z 27009KT 9999 -SHRA FEW007 SCT025TCU BKN130 11/10 Q1014 NOSIG
  • 251720Z 28010KT 9999 -SHRA SCT007 BKN025TCU 11/10 Q1014 NOSIG
  • 251650Z 30016KT 9999 -SHRA FEW022 BKN030TCU 13/08 Q1014 NOSIG

TAF TAF EDDR
Valid from the 25 at 18:00 until the 26 at 18:00 UTC


251700Z 2518/2618 29013KT 9999 BKN030
BECMG 2518/2520 26008KT
PROB30
TEMPO 2518/2520 SHRA BKN020TCU
BECMG 2607/2610 25015G25KT
BECMG 2615/2618 25008KT
No reported NOTAMs for that airfield.



MET'MAP, your aeronautical weather chart ! - Copyright ORBIFLY December 2007 - Disclaimer

ORBIFLY MET'MAP TEAM :

Programming & Development : Alexandra Zaïnal
Concept & Development : Baudouin d'Aumeries
Co-Development & Prog : Marc-Olivier Méhu
Technical & hardware support : Manuel Goepfert

Contact : metmap@orbifly.com




SOURCES & CREDITS :

   NOAA